sensor_id;sensor_type;location;lat;lon;timestamp;P1;durP1;ratioP1;P2;durP2;ratioP2
14092;SDS011;7123;49.468;10.992;2024-01-11T00:00:34;33.97;;;17.40;;
14092;SDS011;7123;49.468;10.992;2024-01-11T00:03:01;35.53;;;18.37;;
14092;SDS011;7123;49.468;10.992;2024-01-11T00:05:28;36.80;;;18.33;;
14092;SDS011;7123;49.468;10.992;2024-01-11T00:07:55;34.77;;;17.40;;
14092;SDS011;7123;49.468;10.992;2024-01-11T00:10:22;31.63;;;16.90;;
14092;SDS011;7123;49.468;10.992;2024-01-11T00:12:49;37.93;;;18.00;;
14092;SDS011;7123;49.468;10.992;2024-01-11T00:15:15;35.33;;;18.27;;
14092;SDS011;7123;49.468;10.992;2024-01-11T00:17:42;36.27;;;17.27;;
14092;SDS011;7123;49.468;10.992;2024-01-11T00:20:09;33.53;;;18.10;;
14092;SDS011;7123;49.468;10.992;2024-01-11T00:22:37;31.70;;;17.43;;
14092;SDS011;7123;49.468;10.992;2024-01-11T00:25:07;37.90;;;18.03;;
14092;SDS011;7123;49.468;10.992;2024-01-11T00:27:34;34.43;;;17.83;;
14092;SDS011;7123;49.468;10.992;2024-01-11T00:30:01;33.90;;;17.63;;
14092;SDS011;7123;49.468;10.992;2024-01-11T00:32:28;34.37;;;17.53;;
14092;SDS011;7123;49.468;10.992;2024-01-11T00:34:54;36.27;;;17.97;;
14092;SDS011;7123;49.468;10.992;2024-01-11T00:37:21;33.73;;;18.00;;
14092;SDS011;7123;49.468;10.992;2024-01-11T00:39:48;33.10;;;16.40;;
14092;SDS011;7123;49.468;10.992;2024-01-11T00:42:15;32.17;;;17.77;;
14092;SDS011;7123;49.468;10.992;2024-01-11T00:44:42;32.60;;;17.30;;
14092;SDS011;7123;49.468;10.992;2024-01-11T00:47:10;31.00;;;16.70;;
14092;SDS011;7123;49.468;10.992;2024-01-11T00:49:37;32.53;;;17.00;;
14092;SDS011;7123;49.468;10.992;2024-01-11T00:52:04;33.03;;;16.87;;
14092;SDS011;7123;49.468;10.992;2024-01-11T00:54:31;35.87;;;17.73;;
14092;SDS011;7123;49.468;10.992;2024-01-11T00:56:59;31.53;;;16.73;;
14092;SDS011;7123;49.468;10.992;2024-01-11T00:59:25;31.43;;;17.53;;
14092;SDS011;7123;49.468;10.992;2024-01-11T01:01:52;32.37;;;17.43;;
14092;SDS011;7123;49.468;10.992;2024-01-11T01:04:19;33.57;;;16.80;;
14092;SDS011;7123;49.468;10.992;2024-01-11T01:06:46;33.80;;;18.63;;
14092;SDS011;7123;49.468;10.992;2024-01-11T01:09:12;32.47;;;17.57;;
14092;SDS011;7123;49.468;10.992;2024-01-11T01:11:39;31.90;;;17.10;;
14092;SDS011;7123;49.468;10.992;2024-01-11T01:14:06;31.60;;;16.90;;
14092;SDS011;7123;49.468;10.992;2024-01-11T01:16:33;34.53;;;17.20;;
14092;SDS011;7123;49.468;10.992;2024-01-11T01:19:00;33.57;;;17.13;;
14092;SDS011;7123;49.468;10.992;2024-01-11T01:21:27;33.10;;;16.90;;
14092;SDS011;7123;49.468;10.992;2024-01-11T01:23:54;29.70;;;16.50;;
14092;SDS011;7123;49.468;10.992;2024-01-11T01:26:21;37.30;;;17.53;;
14092;SDS011;7123;49.468;10.992;2024-01-11T01:28:47;37.17;;;17.37;;
14092;SDS011;7123;49.468;10.992;2024-01-11T01:31:14;31.57;;;17.53;;
14092;SDS011;7123;49.468;10.992;2024-01-11T01:33:41;35.00;;;17.60;;
14092;SDS011;7123;49.468;10.992;2024-01-11T01:36:09;32.10;;;17.10;;
14092;SDS011;7123;49.468;10.992;2024-01-11T01:38:36;35.23;;;17.07;;
14092;SDS011;7123;49.468;10.992;2024-01-11T01:41:03;36.03;;;17.67;;
14092;SDS011;7123;49.468;10.992;2024-01-11T01:43:30;33.17;;;16.53;;
14092;SDS011;7123;49.468;10.992;2024-01-11T01:45:57;31.67;;;17.20;;
14092;SDS011;7123;49.468;10.992;2024-01-11T01:48:24;33.33;;;17.20;;
14092;SDS011;7123;49.468;10.992;2024-01-11T01:50:52;32.67;;;17.23;;
14092;SDS011;7123;49.468;10.992;2024-01-11T01:53:19;32.43;;;16.13;;
14092;SDS011;7123;49.468;10.992;2024-01-11T01:55:48;34.43;;;17.10;;
14092;SDS011;7123;49.468;10.992;2024-01-11T01:58:15;33.37;;;16.60;;
14092;SDS011;7123;49.468;10.992;2024-01-11T02:00:44;32.80;;;17.43;;
14092;SDS011;7123;49.468;10.992;2024-01-11T02:03:11;34.40;;;17.30;;
14092;SDS011;7123;49.468;10.992;2024-01-11T02:05:40;34.50;;;17.00;;
14092;SDS011;7123;49.468;10.992;2024-01-11T02:08:08;31.80;;;16.50;;
14092;SDS011;7123;49.468;10.992;2024-01-11T02:10:38;32.43;;;16.10;;
14092;SDS011;7123;49.468;10.992;2024-01-11T02:13:05;35.37;;;16.87;;
14092;SDS011;7123;49.468;10.992;2024-01-11T02:15:35;33.67;;;17.30;;
14092;SDS011;7123;49.468;10.992;2024-01-11T02:18:02;35.93;;;17.37;;
14092;SDS011;7123;49.468;10.992;2024-01-11T02:20:29;32.17;;;17.07;;
14092;SDS011;7123;49.468;10.992;2024-01-11T02:22:58;38.30;;;17.23;;
14092;SDS011;7123;49.468;10.992;2024-01-11T02:25:31;31.97;;;16.13;;
14092;SDS011;7123;49.468;10.992;2024-01-11T02:27:58;36.57;;;17.13;;
14092;SDS011;7123;49.468;10.992;2024-01-11T02:30:24;32.50;;;17.30;;
14092;SDS011;7123;49.468;10.992;2024-01-11T02:32:52;36.83;;;17.27;;
14092;SDS011;7123;49.468;10.992;2024-01-11T02:35:20;32.47;;;16.07;;
14092;SDS011;7123;49.468;10.992;2024-01-11T02:37:47;30.67;;;16.27;;
14092;SDS011;7123;49.468;10.992;2024-01-11T02:40:14;33.20;;;15.97;;
14092;SDS011;7123;49.468;10.992;2024-01-11T02:42:41;30.97;;;16.93;;
14092;SDS011;7123;49.468;10.992;2024-01-11T02:45:08;31.03;;;16.77;;
14092;SDS011;7123;49.468;10.992;2024-01-11T02:47:38;31.17;;;15.87;;
14092;SDS011;7123;49.468;10.992;2024-01-11T02:50:06;32.70;;;16.90;;
14092;SDS011;7123;49.468;10.992;2024-01-11T02:52:34;35.53;;;16.90;;
14092;SDS011;7123;49.468;10.992;2024-01-11T02:55:01;31.37;;;16.30;;
14092;SDS011;7123;49.468;10.992;2024-01-11T02:57:28;34.40;;;16.53;;
14092;SDS011;7123;49.468;10.992;2024-01-11T02:59:55;32.43;;;16.27;;
14092;SDS011;7123;49.468;10.992;2024-01-11T03:02:21;32.30;;;16.43;;
14092;SDS011;7123;49.468;10.992;2024-01-11T03:04:48;29.23;;;16.00;;
14092;SDS011;7123;49.468;10.992;2024-01-11T03:07:15;31.50;;;16.97;;
14092;SDS011;7123;49.468;10.992;2024-01-11T03:09:42;31.37;;;16.00;;
14092;SDS011;7123;49.468;10.992;2024-01-11T03:12:08;34.43;;;17.07;;
14092;SDS011;7123;49.468;10.992;2024-01-11T03:14:35;32.33;;;16.60;;
14092;SDS011;7123;49.468;10.992;2024-01-11T03:17:02;33.93;;;17.00;;
14092;SDS011;7123;49.468;10.992;2024-01-11T03:19:29;32.83;;;16.77;;
14092;SDS011;7123;49.468;10.992;2024-01-11T03:21:56;30.53;;;16.23;;
14092;SDS011;7123;49.468;10.992;2024-01-11T03:24:23;33.57;;;16.73;;
14092;SDS011;7123;49.468;10.992;2024-01-11T03:26:50;36.67;;;17.10;;
14092;SDS011;7123;49.468;10.992;2024-01-11T03:29:17;33.17;;;16.93;;
14092;SDS011;7123;49.468;10.992;2024-01-11T03:31:43;32.13;;;17.67;;
14092;SDS011;7123;49.468;10.992;2024-01-11T03:34:11;31.53;;;16.83;;
14092;SDS011;7123;49.468;10.992;2024-01-11T03:36:38;34.13;;;16.63;;
14092;SDS011;7123;49.468;10.992;2024-01-11T03:39:06;32.03;;;16.73;;
14092;SDS011;7123;49.468;10.992;2024-01-11T03:41:32;38.20;;;17.13;;
14092;SDS011;7123;49.468;10.992;2024-01-11T03:43:59;35.03;;;17.40;;
14092;SDS011;7123;49.468;10.992;2024-01-11T03:46:26;33.63;;;16.37;;
14092;SDS011;7123;49.468;10.992;2024-01-11T03:48:53;35.50;;;17.23;;
14092;SDS011;7123;49.468;10.992;2024-01-11T03:51:22;29.97;;;16.13;;
14092;SDS011;7123;49.468;10.992;2024-01-11T03:53:48;35.37;;;17.03;;
14092;SDS011;7123;49.468;10.992;2024-01-11T03:56:15;31.37;;;16.17;;
14092;SDS011;7123;49.468;10.992;2024-01-11T03:58:42;33.47;;;17.60;;
14092;SDS011;7123;49.468;10.992;2024-01-11T04:01:10;33.40;;;16.67;;
14092;SDS011;7123;49.468;10.992;2024-01-11T04:03:37;34.50;;;17.33;;
14092;SDS011;7123;49.468;10.992;2024-01-11T04:06:04;33.30;;;16.83;;
14092;SDS011;7123;49.468;10.992;2024-01-11T04:08:32;31.97;;;17.43;;
14092;SDS011;7123;49.468;10.992;2024-01-11T04:11:02;31.30;;;16.90;;
14092;SDS011;7123;49.468;10.992;2024-01-11T04:13:32;33.17;;;17.27;;
14092;SDS011;7123;49.468;10.992;2024-01-11T04:15:59;32.67;;;16.47;;
14092;SDS011;7123;49.468;10.992;2024-01-11T04:18:31;36.87;;;17.30;;
14092;SDS011;7123;49.468;10.992;2024-01-11T04:20:58;35.27;;;17.90;;
14092;SDS011;7123;49.468;10.992;2024-01-11T04:23:25;34.37;;;17.60;;
14092;SDS011;7123;49.468;10.992;2024-01-11T04:25:52;35.40;;;16.40;;
14092;SDS011;7123;49.468;10.992;2024-01-11T04:28:18;36.23;;;17.77;;
14092;SDS011;7123;49.468;10.992;2024-01-11T04:30:45;34.27;;;17.83;;
14092;SDS011;7123;49.468;10.992;2024-01-11T04:33:12;32.47;;;16.13;;
14092;SDS011;7123;49.468;10.992;2024-01-11T04:35:39;34.20;;;17.77;;
14092;SDS011;7123;49.468;10.992;2024-01-11T04:38:06;41.97;;;18.93;;
14092;SDS011;7123;49.468;10.992;2024-01-11T04:40:34;32.80;;;16.30;;
14092;SDS011;7123;49.468;10.992;2024-01-11T04:43:01;34.83;;;17.93;;
14092;SDS011;7123;49.468;10.992;2024-01-11T04:45:28;36.17;;;17.77;;
14092;SDS011;7123;49.468;10.992;2024-01-11T04:47:54;38.53;;;18.37;;
14092;SDS011;7123;49.468;10.992;2024-01-11T04:50:21;35.87;;;17.83;;
14092;SDS011;7123;49.468;10.992;2024-01-11T04:52:48;36.17;;;17.13;;
14092;SDS011;7123;49.468;10.992;2024-01-11T04:55:15;31.83;;;18.10;;
14092;SDS011;7123;49.468;10.992;2024-01-11T04:57:42;33.03;;;17.30;;
14092;SDS011;7123;49.468;10.992;2024-01-11T05:00:09;32.13;;;16.93;;
14092;SDS011;7123;49.468;10.992;2024-01-11T05:02:36;32.87;;;16.60;;
14092;SDS011;7123;49.468;10.992;2024-01-11T05:05:03;34.50;;;16.97;;
14092;SDS011;7123;49.468;10.992;2024-01-11T05:07:30;35.00;;;17.20;;
14092;SDS011;7123;49.468;10.992;2024-01-11T05:09:57;36.53;;;18.13;;
14092;SDS011;7123;49.468;10.992;2024-01-11T05:12:24;38.93;;;18.23;;
14092;SDS011;7123;49.468;10.992;2024-01-11T05:14:50;35.90;;;17.60;;
14092;SDS011;7123;49.468;10.992;2024-01-11T05:17:17;35.20;;;17.13;;
14092;SDS011;7123;49.468;10.992;2024-01-11T05:19:44;32.30;;;16.67;;
14092;SDS011;7123;49.468;10.992;2024-01-11T05:22:10;37.27;;;16.97;;
14092;SDS011;7123;49.468;10.992;2024-01-11T05:24:37;37.53;;;17.73;;
14092;SDS011;7123;49.468;10.992;2024-01-11T05:27:04;35.27;;;17.80;;
14092;SDS011;7123;49.468;10.992;2024-01-11T05:29:31;36.53;;;18.23;;
14092;SDS011;7123;49.468;10.992;2024-01-11T05:31:58;33.33;;;16.77;;
14092;SDS011;7123;49.468;10.992;2024-01-11T05:34:25;35.13;;;17.20;;
14092;SDS011;7123;49.468;10.992;2024-01-11T05:36:52;32.00;;;17.33;;
14092;SDS011;7123;49.468;10.992;2024-01-11T05:39:18;31.63;;;16.87;;
14092;SDS011;7123;49.468;10.992;2024-01-11T05:41:45;32.47;;;16.40;;
14092;SDS011;7123;49.468;10.992;2024-01-11T05:44:12;35.93;;;17.80;;
14092;SDS011;7123;49.468;10.992;2024-01-11T05:46:39;30.00;;;15.77;;
14092;SDS011;7123;49.468;10.992;2024-01-11T05:49:05;28.37;;;16.83;;
14092;SDS011;7123;49.468;10.992;2024-01-11T05:51:32;32.40;;;17.10;;
14092;SDS011;7123;49.468;10.992;2024-01-11T05:53:59;35.77;;;17.40;;
14092;SDS011;7123;49.468;10.992;2024-01-11T05:56:26;34.40;;;17.50;;
14092;SDS011;7123;49.468;10.992;2024-01-11T05:58:52;31.17;;;16.70;;
14092;SDS011;7123;49.468;10.992;2024-01-11T06:01:19;30.57;;;16.63;;
14092;SDS011;7123;49.468;10.992;2024-01-11T06:03:47;37.90;;;17.87;;
14092;SDS011;7123;49.468;10.992;2024-01-11T06:06:14;31.83;;;17.07;;
14092;SDS011;7123;49.468;10.992;2024-01-11T06:08:41;34.60;;;18.13;;
14092;SDS011;7123;49.468;10.992;2024-01-11T06:11:09;35.00;;;17.73;;
14092;SDS011;7123;49.468;10.992;2024-01-11T06:13:36;35.90;;;17.30;;
14092;SDS011;7123;49.468;10.992;2024-01-11T06:16:03;32.43;;;18.23;;
14092;SDS011;7123;49.468;10.992;2024-01-11T06:18:30;35.47;;;18.00;;
14092;SDS011;7123;49.468;10.992;2024-01-11T06:20:57;34.30;;;17.73;;
14092;SDS011;7123;49.468;10.992;2024-01-11T06:23:24;33.97;;;18.13;;
14092;SDS011;7123;49.468;10.992;2024-01-11T06:25:52;36.27;;;18.80;;
14092;SDS011;7123;49.468;10.992;2024-01-11T06:28:18;31.43;;;17.30;;
14092;SDS011;7123;49.468;10.992;2024-01-11T06:30:45;35.10;;;18.90;;
14092;SDS011;7123;49.468;10.992;2024-01-11T06:33:12;36.07;;;17.87;;
14092;SDS011;7123;49.468;10.992;2024-01-11T06:35:39;33.83;;;18.03;;
14092;SDS011;7123;49.468;10.992;2024-01-11T06:38:06;34.93;;;19.07;;
14092;SDS011;7123;49.468;10.992;2024-01-11T06:40:34;33.17;;;17.93;;
14092;SDS011;7123;49.468;10.992;2024-01-11T06:43:00;35.27;;;17.87;;
14092;SDS011;7123;49.468;10.992;2024-01-11T06:45:27;33.97;;;18.10;;
14092;SDS011;7123;49.468;10.992;2024-01-11T06:47:54;33.13;;;17.90;;
14092;SDS011;7123;49.468;10.992;2024-01-11T06:50:21;37.17;;;17.80;;
14092;SDS011;7123;49.468;10.992;2024-01-11T06:52:48;35.73;;;17.97;;
14092;SDS011;7123;49.468;10.992;2024-01-11T06:55:14;35.17;;;18.50;;
14092;SDS011;7123;49.468;10.992;2024-01-11T06:57:42;35.67;;;18.43;;
14092;SDS011;7123;49.468;10.992;2024-01-11T07:00:09;34.93;;;17.97;;
14092;SDS011;7123;49.468;10.992;2024-01-11T07:02:36;36.30;;;17.90;;
14092;SDS011;7123;49.468;10.992;2024-01-11T07:05:03;36.43;;;17.37;;
14092;SDS011;7123;49.468;10.992;2024-01-11T07:07:30;34.13;;;17.40;;
14092;SDS011;7123;49.468;10.992;2024-01-11T07:09:57;36.03;;;17.53;;
14092;SDS011;7123;49.468;10.992;2024-01-11T07:12:23;34.93;;;18.20;;
14092;SDS011;7123;49.468;10.992;2024-01-11T07:14:51;33.37;;;17.50;;
14092;SDS011;7123;49.468;10.992;2024-01-11T07:17:18;38.97;;;19.27;;
14092;SDS011;7123;49.468;10.992;2024-01-11T07:19:45;34.00;;;19.53;;
14092;SDS011;7123;49.468;10.992;2024-01-11T07:22:12;35.43;;;17.93;;
14092;SDS011;7123;49.468;10.992;2024-01-11T07:24:38;38.63;;;18.73;;
14092;SDS011;7123;49.468;10.992;2024-01-11T07:27:05;34.30;;;17.60;;
14092;SDS011;7123;49.468;10.992;2024-01-11T07:29:33;34.80;;;16.63;;
14092;SDS011;7123;49.468;10.992;2024-01-11T07:32:00;35.00;;;18.10;;
14092;SDS011;7123;49.468;10.992;2024-01-11T07:34:27;36.80;;;18.70;;
14092;SDS011;7123;49.468;10.992;2024-01-11T07:36:54;39.50;;;18.50;;
14092;SDS011;7123;49.468;10.992;2024-01-11T07:39:22;39.33;;;18.60;;
14092;SDS011;7123;49.468;10.992;2024-01-11T07:41:50;34.30;;;16.70;;
14092;SDS011;7123;49.468;10.992;2024-01-11T07:44:17;39.53;;;17.40;;
14092;SDS011;7123;49.468;10.992;2024-01-11T07:46:44;33.60;;;17.10;;
14092;SDS011;7123;49.468;10.992;2024-01-11T07:49:19;37.20;;;17.83;;
14092;SDS011;7123;49.468;10.992;2024-01-11T07:51:46;31.80;;;16.13;;
14092;SDS011;7123;49.468;10.992;2024-01-11T07:54:13;36.50;;;17.80;;
14092;SDS011;7123;49.468;10.992;2024-01-11T07:56:40;35.40;;;17.30;;
14092;SDS011;7123;49.468;10.992;2024-01-11T07:59:07;40.53;;;17.67;;
14092;SDS011;7123;49.468;10.992;2024-01-11T08:01:34;34.53;;;17.20;;
14092;SDS011;7123;49.468;10.992;2024-01-11T08:04:02;35.40;;;17.43;;
14092;SDS011;7123;49.468;10.992;2024-01-11T08:06:29;32.33;;;17.23;;
14092;SDS011;7123;49.468;10.992;2024-01-11T08:08:56;34.80;;;17.37;;
14092;SDS011;7123;49.468;10.992;2024-01-11T08:11:23;34.97;;;16.90;;
14092;SDS011;7123;49.468;10.992;2024-01-11T08:13:51;37.20;;;17.97;;
14092;SDS011;7123;49.468;10.992;2024-01-11T08:16:21;29.77;;;15.57;;
14092;SDS011;7123;49.468;10.992;2024-01-11T08:18:47;34.20;;;16.27;;
14092;SDS011;7123;49.468;10.992;2024-01-11T08:21:15;34.00;;;17.50;;
14092;SDS011;7123;49.468;10.992;2024-01-11T08:23:42;35.57;;;17.97;;
14092;SDS011;7123;49.468;10.992;2024-01-11T08:26:12;32.73;;;16.37;;
14092;SDS011;7123;49.468;10.992;2024-01-11T08:28:40;33.23;;;16.10;;
14092;SDS011;7123;49.468;10.992;2024-01-11T08:31:07;33.80;;;16.40;;
14092;SDS011;7123;49.468;10.992;2024-01-11T08:33:35;30.37;;;15.73;;
14092;SDS011;7123;49.468;10.992;2024-01-11T08:36:04;32.80;;;16.13;;
14092;SDS011;7123;49.468;10.992;2024-01-11T08:38:32;30.20;;;16.47;;
14092;SDS011;7123;49.468;10.992;2024-01-11T08:40:59;35.67;;;16.73;;
14092;SDS011;7123;49.468;10.992;2024-01-11T08:43:27;32.97;;;17.40;;
14092;SDS011;7123;49.468;10.992;2024-01-11T08:45:54;30.97;;;16.33;;
14092;SDS011;7123;49.468;10.992;2024-01-11T08:48:21;31.83;;;16.37;;
14092;SDS011;7123;49.468;10.992;2024-01-11T08:50:48;31.83;;;16.80;;
14092;SDS011;7123;49.468;10.992;2024-01-11T08:53:15;32.47;;;16.47;;
14092;SDS011;7123;49.468;10.992;2024-01-11T08:55:42;33.37;;;16.33;;
14092;SDS011;7123;49.468;10.992;2024-01-11T08:58:12;33.23;;;17.20;;
14092;SDS011;7123;49.468;10.992;2024-01-11T09:00:39;33.13;;;17.10;;
14092;SDS011;7123;49.468;10.992;2024-01-11T09:03:06;33.83;;;18.03;;
14092;SDS011;7123;49.468;10.992;2024-01-11T09:05:33;35.20;;;17.90;;
14092;SDS011;7123;49.468;10.992;2024-01-11T09:08:00;35.27;;;18.47;;
14092;SDS011;7123;49.468;10.992;2024-01-11T09:10:27;32.77;;;17.67;;
14092;SDS011;7123;49.468;10.992;2024-01-11T09:12:53;33.67;;;17.47;;
14092;SDS011;7123;49.468;10.992;2024-01-11T09:15:21;33.47;;;18.17;;
14092;SDS011;7123;49.468;10.992;2024-01-11T09:17:48;36.10;;;17.47;;
14092;SDS011;7123;49.468;10.992;2024-01-11T09:20:15;36.20;;;17.80;;
14092;SDS011;7123;49.468;10.992;2024-01-11T09:22:42;35.53;;;17.60;;
14092;SDS011;7123;49.468;10.992;2024-01-11T09:25:09;36.70;;;18.07;;
14092;SDS011;7123;49.468;10.992;2024-01-11T09:27:36;36.80;;;18.63;;
14092;SDS011;7123;49.468;10.992;2024-01-11T09:30:03;31.17;;;17.60;;
14092;SDS011;7123;49.468;10.992;2024-01-11T09:32:30;28.20;;;16.97;;
14092;SDS011;7123;49.468;10.992;2024-01-11T09:34:58;37.57;;;18.83;;
14092;SDS011;7123;49.468;10.992;2024-01-11T09:37:25;36.67;;;18.17;;
14092;SDS011;7123;49.468;10.992;2024-01-11T09:39:52;33.93;;;16.90;;
14092;SDS011;7123;49.468;10.992;2024-01-11T09:42:18;34.97;;;17.77;;
14092;SDS011;7123;49.468;10.992;2024-01-11T09:44:45;32.53;;;16.93;;
14092;SDS011;7123;49.468;10.992;2024-01-11T09:47:12;35.33;;;19.23;;
14092;SDS011;7123;49.468;10.992;2024-01-11T09:49:45;35.27;;;18.23;;
14092;SDS011;7123;49.468;10.992;2024-01-11T09:52:17;35.40;;;18.20;;
14092;SDS011;7123;49.468;10.992;2024-01-11T09:54:46;36.30;;;18.07;;
14092;SDS011;7123;49.468;10.992;2024-01-11T09:57:13;36.37;;;18.93;;
14092;SDS011;7123;49.468;10.992;2024-01-11T09:59:49;35.50;;;18.33;;
14092;SDS011;7123;49.468;10.992;2024-01-11T10:02:19;38.53;;;18.67;;
14092;SDS011;7123;49.468;10.992;2024-01-11T10:04:47;35.87;;;16.63;;
14092;SDS011;7123;49.468;10.992;2024-01-11T10:07:13;33.80;;;17.80;;
14092;SDS011;7123;49.468;10.992;2024-01-11T10:09:44;33.80;;;18.67;;
14092;SDS011;7123;49.468;10.992;2024-01-11T10:12:11;32.17;;;16.83;;
14092;SDS011;7123;49.468;10.992;2024-01-11T10:14:39;39.23;;;18.90;;
14092;SDS011;7123;49.468;10.992;2024-01-11T10:17:06;32.07;;;17.37;;
14092;SDS011;7123;49.468;10.992;2024-01-11T10:19:33;36.70;;;18.27;;
14092;SDS011;7123;49.468;10.992;2024-01-11T10:22:00;33.67;;;17.53;;
14092;SDS011;7123;49.468;10.992;2024-01-11T10:24:26;32.60;;;16.93;;
14092;SDS011;7123;49.468;10.992;2024-01-11T10:26:57;33.97;;;17.43;;
14092;SDS011;7123;49.468;10.992;2024-01-11T10:29:27;32.10;;;16.83;;
14092;SDS011;7123;49.468;10.992;2024-01-11T10:32:05;35.70;;;17.40;;
14092;SDS011;7123;49.468;10.992;2024-01-11T10:34:32;38.03;;;18.53;;
14092;SDS011;7123;49.468;10.992;2024-01-11T10:36:59;33.57;;;17.40;;
14092;SDS011;7123;49.468;10.992;2024-01-11T10:39:26;36.77;;;18.43;;
14092;SDS011;7123;49.468;10.992;2024-01-11T10:42:02;29.30;;;16.83;;
14092;SDS011;7123;49.468;10.992;2024-01-11T10:44:33;33.43;;;16.90;;
14092;SDS011;7123;49.468;10.992;2024-01-11T10:47:04;31.63;;;16.93;;
14092;SDS011;7123;49.468;10.992;2024-01-11T10:49:34;33.00;;;17.80;;
14092;SDS011;7123;49.468;10.992;2024-01-11T10:52:06;35.70;;;17.93;;
14092;SDS011;7123;49.468;10.992;2024-01-11T10:54:34;29.33;;;16.57;;
14092;SDS011;7123;49.468;10.992;2024-01-11T10:57:01;35.93;;;18.03;;
14092;SDS011;7123;49.468;10.992;2024-01-11T10:59:31;34.07;;;17.00;;
14092;SDS011;7123;49.468;10.992;2024-01-11T11:02:04;30.40;;;16.70;;
14092;SDS011;7123;49.468;10.992;2024-01-11T11:04:32;33.83;;;17.63;;
14092;SDS011;7123;49.468;10.992;2024-01-11T11:07:01;34.47;;;17.97;;
14092;SDS011;7123;49.468;10.992;2024-01-11T11:09:29;32.67;;;16.50;;
14092;SDS011;7123;49.468;10.992;2024-01-11T11:11:58;35.23;;;17.30;;
14092;SDS011;7123;49.468;10.992;2024-01-11T11:14:27;35.40;;;17.90;;
14092;SDS011;7123;49.468;10.992;2024-01-11T11:16:54;30.33;;;16.30;;
14092;SDS011;7123;49.468;10.992;2024-01-11T11:19:21;33.67;;;17.30;;
14092;SDS011;7123;49.468;10.992;2024-01-11T11:21:48;31.20;;;17.07;;
14092;SDS011;7123;49.468;10.992;2024-01-11T11:24:16;35.53;;;17.60;;
14092;SDS011;7123;49.468;10.992;2024-01-11T11:26:43;30.03;;;16.63;;
14092;SDS011;7123;49.468;10.992;2024-01-11T11:29:10;32.50;;;16.80;;
14092;SDS011;7123;49.468;10.992;2024-01-11T11:31:38;28.40;;;14.57;;
14092;SDS011;7123;49.468;10.992;2024-01-11T11:34:12;32.70;;;17.13;;
14092;SDS011;7123;49.468;10.992;2024-01-11T11:36:40;30.57;;;15.40;;
14092;SDS011;7123;49.468;10.992;2024-01-11T11:39:10;26.97;;;15.57;;
14092;SDS011;7123;49.468;10.992;2024-01-11T11:41:40;29.30;;;15.93;;
14092;SDS011;7123;49.468;10.992;2024-01-11T11:44:09;27.77;;;15.33;;
14092;SDS011;7123;49.468;10.992;2024-01-11T11:46:40;32.83;;;16.50;;
14092;SDS011;7123;49.468;10.992;2024-01-11T11:49:07;30.07;;;16.03;;
14092;SDS011;7123;49.468;10.992;2024-01-11T11:51:36;32.53;;;15.60;;
14092;SDS011;7123;49.468;10.992;2024-01-11T11:54:06;31.13;;;15.50;;
14092;SDS011;7123;49.468;10.992;2024-01-11T11:56:40;31.53;;;15.80;;
14092;SDS011;7123;49.468;10.992;2024-01-11T11:59:08;27.83;;;15.23;;
14092;SDS011;7123;49.468;10.992;2024-01-11T12:01:35;33.97;;;15.43;;
14092;SDS011;7123;49.468;10.992;2024-01-11T12:04:03;29.57;;;15.40;;
14092;SDS011;7123;49.468;10.992;2024-01-11T12:06:30;29.50;;;15.53;;
14092;SDS011;7123;49.468;10.992;2024-01-11T12:08:57;31.97;;;15.00;;
14092;SDS011;7123;49.468;10.992;2024-01-11T12:11:24;33.70;;;16.43;;
14092;SDS011;7123;49.468;10.992;2024-01-11T12:13:51;34.83;;;15.00;;
14092;SDS011;7123;49.468;10.992;2024-01-11T12:16:19;28.63;;;15.37;;
14092;SDS011;7123;49.468;10.992;2024-01-11T12:18:48;23.20;;;13.67;;
14092;SDS011;7123;49.468;10.992;2024-01-11T12:21:15;26.43;;;14.87;;
14092;SDS011;7123;49.468;10.992;2024-01-11T12:23:43;26.97;;;14.07;;
14092;SDS011;7123;49.468;10.992;2024-01-11T12:26:10;23.97;;;13.77;;
14092;SDS011;7123;49.468;10.992;2024-01-11T12:28:40;22.90;;;14.27;;
14092;SDS011;7123;49.468;10.992;2024-01-11T12:31:08;24.83;;;14.50;;
14092;SDS011;7123;49.468;10.992;2024-01-11T12:33:35;29.33;;;14.83;;
14092;SDS011;7123;49.468;10.992;2024-01-11T12:36:05;24.43;;;14.13;;
14092;SDS011;7123;49.468;10.992;2024-01-11T12:38:34;26.07;;;15.00;;
14092;SDS011;7123;49.468;10.992;2024-01-11T12:41:01;27.73;;;14.20;;
14092;SDS011;7123;49.468;10.992;2024-01-11T12:43:28;23.83;;;13.47;;
14092;SDS011;7123;49.468;10.992;2024-01-11T12:45:55;28.07;;;14.23;;
14092;SDS011;7123;49.468;10.992;2024-01-11T12:48:23;25.07;;;13.80;;
14092;SDS011;7123;49.468;10.992;2024-01-11T12:50:50;25.73;;;14.83;;
14092;SDS011;7123;49.468;10.992;2024-01-11T12:53:39;29.13;;;13.83;;
14092;SDS011;7123;49.468;10.992;2024-01-11T12:56:06;25.30;;;13.70;;
14092;SDS011;7123;49.468;10.992;2024-01-11T12:58:39;27.53;;;13.07;;
14092;SDS011;7123;49.468;10.992;2024-01-11T13:01:06;23.50;;;13.40;;
14092;SDS011;7123;49.468;10.992;2024-01-11T13:03:38;24.23;;;12.93;;
14092;SDS011;7123;49.468;10.992;2024-01-11T13:06:06;22.20;;;12.43;;
14092;SDS011;7123;49.468;10.992;2024-01-11T13:08:35;23.40;;;12.80;;
14092;SDS011;7123;49.468;10.992;2024-01-11T13:11:08;27.13;;;13.60;;
14092;SDS011;7123;49.468;10.992;2024-01-11T13:13:35;27.23;;;14.13;;
14092;SDS011;7123;49.468;10.992;2024-01-11T13:16:02;26.33;;;14.23;;
14092;SDS011;7123;49.468;10.992;2024-01-11T13:18:40;26.53;;;14.67;;
14092;SDS011;7123;49.468;10.992;2024-01-11T13:21:07;27.70;;;14.03;;
14092;SDS011;7123;49.468;10.992;2024-01-11T13:23:34;26.57;;;13.93;;
14092;SDS011;7123;49.468;10.992;2024-01-11T13:26:01;28.30;;;13.67;;
14092;SDS011;7123;49.468;10.992;2024-01-11T13:28:28;24.07;;;13.60;;
14092;SDS011;7123;49.468;10.992;2024-01-11T13:30:55;27.10;;;12.93;;
14092;SDS011;7123;49.468;10.992;2024-01-11T13:33:23;21.60;;;12.17;;
14092;SDS011;7123;49.468;10.992;2024-01-11T13:35:50;23.77;;;13.00;;
14092;SDS011;7123;49.468;10.992;2024-01-11T13:38:18;26.00;;;14.07;;
14092;SDS011;7123;49.468;10.992;2024-01-11T13:40:48;23.67;;;12.77;;
14092;SDS011;7123;49.468;10.992;2024-01-11T13:43:15;21.43;;;13.13;;
14092;SDS011;7123;49.468;10.992;2024-01-11T13:45:43;20.87;;;12.07;;
14092;SDS011;7123;49.468;10.992;2024-01-11T13:48:10;20.07;;;11.70;;
14092;SDS011;7123;49.468;10.992;2024-01-11T13:50:37;22.27;;;12.87;;
14092;SDS011;7123;49.468;10.992;2024-01-11T13:53:04;21.93;;;12.70;;
14092;SDS011;7123;49.468;10.992;2024-01-11T13:55:32;22.80;;;12.07;;
14092;SDS011;7123;49.468;10.992;2024-01-11T13:58:06;27.37;;;13.67;;
14092;SDS011;7123;49.468;10.992;2024-01-11T14:00:34;24.40;;;12.20;;
14092;SDS011;7123;49.468;10.992;2024-01-11T14:03:01;19.70;;;12.00;;
14092;SDS011;7123;49.468;10.992;2024-01-11T14:05:30;22.10;;;13.07;;
14092;SDS011;7123;49.468;10.992;2024-01-11T14:07:56;21.47;;;12.10;;
14092;SDS011;7123;49.468;10.992;2024-01-11T14:10:26;24.00;;;11.83;;
14092;SDS011;7123;49.468;10.992;2024-01-11T14:12:54;20.57;;;11.77;;
14092;SDS011;7123;49.468;10.992;2024-01-11T14:15:21;19.77;;;11.60;;
14092;SDS011;7123;49.468;10.992;2024-01-11T14:17:48;19.37;;;12.03;;
14092;SDS011;7123;49.468;10.992;2024-01-11T14:20:15;38.37;;;17.40;;
14092;SDS011;7123;49.468;10.992;2024-01-11T14:22:44;22.50;;;12.30;;